sensor_id;sensor_type;location;lat;lon;timestamp;temperature;humidity
6421;DHT22;3243;50.958;7.012;2023-09-12T00:00:39;22.30;99.90
6421;DHT22;3243;50.958;7.012;2023-09-12T00:03:06;22.30;99.90
6421;DHT22;3243;50.958;7.012;2023-09-12T00:05:33;22.30;99.90
6421;DHT22;3243;50.958;7.012;2023-09-12T00:08:00;22.30;99.90
6421;DHT22;3243;50.958;7.012;2023-09-12T00:10:26;22.20;99.90
6421;DHT22;3243;50.958;7.012;2023-09-12T00:12:53;22.20;99.90
6421;DHT22;3243;50.958;7.012;2023-09-12T00:15:20;22.10;99.90
6421;DHT22;3243;50.958;7.012;2023-09-12T00:17:47;22.10;99.90
6421;DHT22;3243;50.958;7.012;2023-09-12T00:20:17;22.00;99.90
6421;DHT22;3243;50.958;7.012;2023-09-12T00:22:43;21.90;99.90
6421;DHT22;3243;50.958;7.012;2023-09-12T00:25:10;21.90;99.90
6421;DHT22;3243;50.958;7.012;2023-09-12T00:27:37;21.80;99.90
6421;DHT22;3243;50.958;7.012;2023-09-12T00:30:04;21.70;99.90
6421;DHT22;3243;50.958;7.012;2023-09-12T00:32:31;21.70;99.90
6421;DHT22;3243;50.958;7.012;2023-09-12T00:34:58;21.50;1.00
6421;DHT22;3243;50.958;7.012;2023-09-12T00:37:24;21.40;1.00
6421;DHT22;3243;50.958;7.012;2023-09-12T00:39:51;21.40;1.00
6421;DHT22;3243;50.958;7.012;2023-09-12T00:42:19;21.40;1.00
6421;DHT22;3243;50.958;7.012;2023-09-12T00:44:45;21.30;1.00
6421;DHT22;3243;50.958;7.012;2023-09-12T00:47:13;21.30;1.00
6421;DHT22;3243;50.958;7.012;2023-09-12T00:49:40;21.30;1.00
6421;DHT22;3243;50.958;7.012;2023-09-12T00:52:08;21.20;1.00
6421;DHT22;3243;50.958;7.012;2023-09-12T00:54:35;21.20;1.00
6421;DHT22;3243;50.958;7.012;2023-09-12T00:57:02;21.20;1.00
6421;DHT22;3243;50.958;7.012;2023-09-12T00:59:29;21.10;1.00
6421;DHT22;3243;50.958;7.012;2023-09-12T01:01:56;21.20;1.00
6421;DHT22;3243;50.958;7.012;2023-09-12T01:04:23;21.10;1.00
6421;DHT22;3243;50.958;7.012;2023-09-12T01:07:00;21.10;1.00
6421;DHT22;3243;50.958;7.012;2023-09-12T01:09:28;21.00;1.00
6421;DHT22;3243;50.958;7.012;2023-09-12T01:11:56;21.00;1.00
6421;DHT22;3243;50.958;7.012;2023-09-12T01:14:23;21.00;1.00
6421;DHT22;3243;50.958;7.012;2023-09-12T01:16:49;21.00;1.00
6421;DHT22;3243;50.958;7.012;2023-09-12T01:19:17;21.00;1.00
6421;DHT22;3243;50.958;7.012;2023-09-12T01:22:15;20.80;1.00
6421;DHT22;3243;50.958;7.012;2023-09-12T01:27:48;20.80;1.00
6421;DHT22;3243;50.958;7.012;2023-09-12T01:30:27;20.80;1.00
6421;DHT22;3243;50.958;7.012;2023-09-12T01:32:54;20.80;1.00
6421;DHT22;3243;50.958;7.012;2023-09-12T01:35:21;20.80;1.00
6421;DHT22;3243;50.958;7.012;2023-09-12T01:37:48;20.80;1.00
6421;DHT22;3243;50.958;7.012;2023-09-12T01:40:15;20.90;1.00
6421;DHT22;3243;50.958;7.012;2023-09-12T01:42:45;20.80;1.00
6421;DHT22;3243;50.958;7.012;2023-09-12T01:45:17;20.90;1.00
6421;DHT22;3243;50.958;7.012;2023-09-12T01:47:49;20.90;1.00
6421;DHT22;3243;50.958;7.012;2023-09-12T01:50:17;21.00;1.00
6421;DHT22;3243;50.958;7.012;2023-09-12T01:52:44;21.00;1.00
6421;DHT22;3243;50.958;7.012;2023-09-12T01:55:11;21.00;1.00
6421;DHT22;3243;50.958;7.012;2023-09-12T01:57:39;21.00;1.00
6421;DHT22;3243;50.958;7.012;2023-09-12T02:00:07;21.00;1.00
6421;DHT22;3243;50.958;7.012;2023-09-12T02:02:33;20.90;1.00
6421;DHT22;3243;50.958;7.012;2023-09-12T02:05:19;20.80;1.00
6421;DHT22;3243;50.958;7.012;2023-09-12T02:07:46;20.80;1.00
6421;DHT22;3243;50.958;7.012;2023-09-12T02:10:14;20.80;1.00
6421;DHT22;3243;50.958;7.012;2023-09-12T02:12:41;20.70;1.00
6421;DHT22;3243;50.958;7.012;2023-09-12T02:15:08;20.70;1.00
6421;DHT22;3243;50.958;7.012;2023-09-12T02:17:35;20.70;1.00
6421;DHT22;3243;50.958;7.012;2023-09-12T02:20:02;20.70;1.00
6421;DHT22;3243;50.958;7.012;2023-09-12T02:22:32;20.60;1.00
6421;DHT22;3243;50.958;7.012;2023-09-12T02:24:58;20.60;1.00
6421;DHT22;3243;50.958;7.012;2023-09-12T02:27:25;20.60;1.00
6421;DHT22;3243;50.958;7.012;2023-09-12T02:29:52;20.60;1.00
6421;DHT22;3243;50.958;7.012;2023-09-12T02:32:19;20.50;1.00
6421;DHT22;3243;50.958;7.012;2023-09-12T02:34:46;20.50;1.00
6421;DHT22;3243;50.958;7.012;2023-09-12T02:37:12;20.50;1.00
6421;DHT22;3243;50.958;7.012;2023-09-12T02:39:39;20.60;1.00
6421;DHT22;3243;50.958;7.012;2023-09-12T02:44:33;20.50;1.00
6421;DHT22;3243;50.958;7.012;2023-09-12T02:47:00;20.50;1.00
6421;DHT22;3243;50.958;7.012;2023-09-12T02:49:27;20.50;1.00
6421;DHT22;3243;50.958;7.012;2023-09-12T02:51:54;20.50;1.00
6421;DHT22;3243;50.958;7.012;2023-09-12T02:54:21;20.50;1.00
6421;DHT22;3243;50.958;7.012;2023-09-12T02:56:48;20.50;1.00
6421;DHT22;3243;50.958;7.012;2023-09-12T02:59:14;20.50;1.00
6421;DHT22;3243;50.958;7.012;2023-09-12T03:01:41;20.60;1.00
6421;DHT22;3243;50.958;7.012;2023-09-12T03:06:35;20.70;99.90
6421;DHT22;3243;50.958;7.012;2023-09-12T03:09:03;20.80;99.90
6421;DHT22;3243;50.958;7.012;2023-09-12T03:18:51;20.70;99.90
6421;DHT22;3243;50.958;7.012;2023-09-12T03:23:45;20.60;1.00
6421;DHT22;3243;50.958;7.012;2023-09-12T03:31:10;20.50;1.00
6421;DHT22;3243;50.958;7.012;2023-09-12T03:33:41;20.40;1.00
6421;DHT22;3243;50.958;7.012;2023-09-12T03:43:32;20.30;1.00
6421;DHT22;3243;50.958;7.012;2023-09-12T03:45:59;20.30;1.00
6421;DHT22;3243;50.958;7.012;2023-09-12T03:48:25;20.30;1.00
6421;DHT22;3243;50.958;7.012;2023-09-12T03:53:19;20.30;1.00
6421;DHT22;3243;50.958;7.012;2023-09-12T03:55:46;20.30;1.00
6421;DHT22;3243;50.958;7.012;2023-09-12T04:03:07;20.40;1.00
6421;DHT22;3243;50.958;7.012;2023-09-12T04:05:34;20.30;1.00
6421;DHT22;3243;50.958;7.012;2023-09-12T04:08:01;20.30;1.00
6421;DHT22;3243;50.958;7.012;2023-09-12T04:10:28;20.30;1.00
6421;DHT22;3243;50.958;7.012;2023-09-12T04:12:54;20.30;1.00
6421;DHT22;3243;50.958;7.012;2023-09-12T04:15:21;20.30;1.00
6421;DHT22;3243;50.958;7.012;2023-09-12T04:17:48;20.30;1.00
6421;DHT22;3243;50.958;7.012;2023-09-12T04:22:42;20.30;1.00
6421;DHT22;3243;50.958;7.012;2023-09-12T04:27:36;20.40;1.00
6421;DHT22;3243;50.958;7.012;2023-09-12T04:32:31;20.30;1.00
6421;DHT22;3243;50.958;7.012;2023-09-12T04:37:26;20.30;1.00
6421;DHT22;3243;50.958;7.012;2023-09-12T04:42:20;20.40;1.00
6421;DHT22;3243;50.958;7.012;2023-09-12T04:44:48;20.50;1.00
6421;DHT22;3243;50.958;7.012;2023-09-12T04:49:44;20.50;1.00
6421;DHT22;3243;50.958;7.012;2023-09-12T04:52:10;20.40;1.00
6421;DHT22;3243;50.958;7.012;2023-09-12T04:54:37;20.40;1.00
6421;DHT22;3243;50.958;7.012;2023-09-12T04:57:04;20.30;1.00
6421;DHT22;3243;50.958;7.012;2023-09-12T04:59:31;20.40;1.00
6421;DHT22;3243;50.958;7.012;2023-09-12T05:04:25;20.30;1.00
6421;DHT22;3243;50.958;7.012;2023-09-12T05:09:20;20.30;1.00
6421;DHT22;3243;50.958;7.012;2023-09-12T05:11:47;20.30;1.00
6421;DHT22;3243;50.958;7.012;2023-09-12T05:16:40;20.20;1.00
6421;DHT22;3243;50.958;7.012;2023-09-12T05:19:07;20.20;95.50
6421;DHT22;3243;50.958;7.012;2023-09-12T05:28:56;20.30;1.00
6421;DHT22;3243;50.958;7.012;2023-09-12T05:33:50;20.40;1.00
6421;DHT22;3243;50.958;7.012;2023-09-12T05:36:17;20.50;1.00
6421;DHT22;3243;50.958;7.012;2023-09-12T05:38:43;20.50;1.00
6421;DHT22;3243;50.958;7.012;2023-09-12T05:43:38;20.60;1.00
6421;DHT22;3243;50.958;7.012;2023-09-12T05:48:46;20.80;1.00
6421;DHT22;3243;50.958;7.012;2023-09-12T06:04:18;21.40;99.90
6421;DHT22;3243;50.958;7.012;2023-09-12T06:06:46;21.30;99.90
6421;DHT22;3243;50.958;7.012;2023-09-12T06:16:34;21.60;99.90
6421;DHT22;3243;50.958;7.012;2023-09-12T06:19:01;21.50;99.90
6421;DHT22;3243;50.958;7.012;2023-09-12T06:21:28;21.50;99.90
6421;DHT22;3243;50.958;7.012;2023-09-12T06:24:19;21.70;99.90
6421;DHT22;3243;50.958;7.012;2023-09-12T06:26:46;22.00;99.90
6421;DHT22;3243;50.958;7.012;2023-09-12T06:29:13;22.10;99.90
6421;DHT22;3243;50.958;7.012;2023-09-12T06:31:40;22.30;99.90
6421;DHT22;3243;50.958;7.012;2023-09-12T06:34:10;22.40;99.90
6421;DHT22;3243;50.958;7.012;2023-09-12T06:36:38;22.50;99.90
6421;DHT22;3243;50.958;7.012;2023-09-12T06:39:05;22.60;99.90
6421;DHT22;3243;50.958;7.012;2023-09-12T06:41:32;22.80;99.90
6421;DHT22;3243;50.958;7.012;2023-09-12T06:43:59;22.90;64.40
6421;DHT22;3243;50.958;7.012;2023-09-12T06:46:26;23.10;50.70
6421;DHT22;3243;50.958;7.012;2023-09-12T06:48:53;23.30;32.30
6421;DHT22;3243;50.958;7.012;2023-09-12T06:51:23;23.30;26.90
6421;DHT22;3243;50.958;7.012;2023-09-12T06:53:52;23.20;49.30
6421;DHT22;3243;50.958;7.012;2023-09-12T06:56:19;23.10;57.70
6421;DHT22;3243;50.958;7.012;2023-09-12T06:58:45;23.10;73.50
6421;DHT22;3243;50.958;7.012;2023-09-12T07:01:12;22.80;99.90
6421;DHT22;3243;50.958;7.012;2023-09-12T07:03:39;22.70;99.90
6421;DHT22;3243;50.958;7.012;2023-09-12T07:06:07;22.90;99.90
6421;DHT22;3243;50.958;7.012;2023-09-12T07:08:36;23.30;47.30
6421;DHT22;3243;50.958;7.012;2023-09-12T07:11:04;23.30;57.20
6421;DHT22;3243;50.958;7.012;2023-09-12T07:13:33;23.20;39.20
6421;DHT22;3243;50.958;7.012;2023-09-12T07:16:00;23.20;41.50
6421;DHT22;3243;50.958;7.012;2023-09-12T07:18:30;23.30;37.70
6421;DHT22;3243;50.958;7.012;2023-09-12T07:21:03;23.30;45.40
6421;DHT22;3243;50.958;7.012;2023-09-12T07:23:31;23.20;56.70
6421;DHT22;3243;50.958;7.012;2023-09-12T07:25:59;23.00;75.50
6421;DHT22;3243;50.958;7.012;2023-09-12T07:28:26;22.90;59.20
6421;DHT22;3243;50.958;7.012;2023-09-12T07:30:56;22.80;98.50
6421;DHT22;3243;50.958;7.012;2023-09-12T07:33:23;22.60;99.90
6421;DHT22;3243;50.958;7.012;2023-09-12T07:35:53;22.60;99.90
6421;DHT22;3243;50.958;7.012;2023-09-12T07:38:21;22.80;99.90
6421;DHT22;3243;50.958;7.012;2023-09-12T07:40:48;22.90;99.90
6421;DHT22;3243;50.958;7.012;2023-09-12T07:43:15;22.60;90.00
6421;DHT22;3243;50.958;7.012;2023-09-12T07:45:42;22.60;99.90
6421;DHT22;3243;50.958;7.012;2023-09-12T07:48:10;22.50;99.90
6421;DHT22;3243;50.958;7.012;2023-09-12T07:50:38;22.50;99.90
6421;DHT22;3243;50.958;7.012;2023-09-12T07:53:05;22.60;99.90
6421;DHT22;3243;50.958;7.012;2023-09-12T07:55:39;22.90;95.70
6421;DHT22;3243;50.958;7.012;2023-09-12T07:58:16;23.10;78.60
6421;DHT22;3243;50.958;7.012;2023-09-12T08:00:46;23.10;44.10
6421;DHT22;3243;50.958;7.012;2023-09-12T08:03:13;23.00;47.20
6421;DHT22;3243;50.958;7.012;2023-09-12T08:05:40;23.10;33.50
6421;DHT22;3243;50.958;7.012;2023-09-12T08:08:07;22.90;62.50
6421;DHT22;3243;50.958;7.012;2023-09-12T08:10:34;22.90;59.40
6421;DHT22;3243;50.958;7.012;2023-09-12T08:13:01;22.90;60.40
6421;DHT22;3243;50.958;7.012;2023-09-12T08:15:28;22.90;64.10
6421;DHT22;3243;50.958;7.012;2023-09-12T08:17:55;23.00;16.30
6421;DHT22;3243;50.958;7.012;2023-09-12T08:20:22;23.20;27.30
6421;DHT22;3243;50.958;7.012;2023-09-12T08:22:49;23.30;11.40
6421;DHT22;3243;50.958;7.012;2023-09-12T08:25:16;23.40;1.00
6421;DHT22;3243;50.958;7.012;2023-09-12T08:27:42;23.50;1.00
6421;DHT22;3243;50.958;7.012;2023-09-12T08:30:11;25.20;17.00
6421;DHT22;3243;50.958;7.012;2023-09-12T08:32:40;23.70;1.00
6421;DHT22;3243;50.958;7.012;2023-09-12T08:35:13;23.90;1.00
6421;DHT22;3243;50.958;7.012;2023-09-12T08:37:41;23.80;1.00
6421;DHT22;3243;50.958;7.012;2023-09-12T08:40:10;23.70;1.00
6421;DHT22;3243;50.958;7.012;2023-09-12T08:42:42;23.60;1.00
6421;DHT22;3243;50.958;7.012;2023-09-12T08:45:17;23.70;1.00
6421;DHT22;3243;50.958;7.012;2023-09-12T08:47:46;23.70;1.00
6421;DHT22;3243;50.958;7.012;2023-09-12T08:50:14;23.70;1.00
6421;DHT22;3243;50.958;7.012;2023-09-12T08:52:43;23.80;1.00
6421;DHT22;3243;50.958;7.012;2023-09-12T08:55:30;23.70;1.00
6421;DHT22;3243;50.958;7.012;2023-09-12T08:58:00;23.60;1.00
6421;DHT22;3243;50.958;7.012;2023-09-12T09:00:29;23.60;1.00
6421;DHT22;3243;50.958;7.012;2023-09-12T09:02:57;23.70;1.00
6421;DHT22;3243;50.958;7.012;2023-09-12T09:05:25;23.80;1.00
6421;DHT22;3243;50.958;7.012;2023-09-12T09:07:54;23.80;25.80
6421;DHT22;3243;50.958;7.012;2023-09-12T09:10:23;23.90;27.20
6421;DHT22;3243;50.958;7.012;2023-09-12T09:13:08;24.00;24.70
6421;DHT22;3243;50.958;7.012;2023-09-12T09:15:37;24.20;5.30
6421;DHT22;3243;50.958;7.012;2023-09-12T09:18:09;24.30;1.00
6421;DHT22;3243;50.958;7.012;2023-09-12T09:20:38;24.30;1.00
6421;DHT22;3243;50.958;7.012;2023-09-12T09:23:10;24.50;1.00
6421;DHT22;3243;50.958;7.012;2023-09-12T09:25:42;24.50;1.00
6421;DHT22;3243;50.958;7.012;2023-09-12T09:28:20;24.60;1.00
6421;DHT22;3243;50.958;7.012;2023-09-12T09:30:48;24.70;1.00
6421;DHT22;3243;50.958;7.012;2023-09-12T09:33:18;24.80;1.00
6421;DHT22;3243;50.958;7.012;2023-09-12T09:35:48;24.60;1.00
6421;DHT22;3243;50.958;7.012;2023-09-12T09:38:19;24.70;1.00
6421;DHT22;3243;50.958;7.012;2023-09-12T09:40:46;24.70;1.00
6421;DHT22;3243;50.958;7.012;2023-09-12T09:43:19;24.80;1.00
6421;DHT22;3243;50.958;7.012;2023-09-12T09:45:47;24.80;1.00
6421;DHT22;3243;50.958;7.012;2023-09-12T09:48:21;24.80;1.00
6421;DHT22;3243;50.958;7.012;2023-09-12T09:50:48;25.20;1.00
6421;DHT22;3243;50.958;7.012;2023-09-12T09:53:16;25.20;1.00
6421;DHT22;3243;50.958;7.012;2023-09-12T09:55:43;25.60;1.00
6421;DHT22;3243;50.958;7.012;2023-09-12T09:58:15;25.80;1.00
6421;DHT22;3243;50.958;7.012;2023-09-12T10:00:45;25.90;1.00
6421;DHT22;3243;50.958;7.012;2023-09-12T10:03:17;26.00;1.00
6421;DHT22;3243;50.958;7.012;2023-09-12T10:05:46;26.00;1.00
6421;DHT22;3243;50.958;7.012;2023-09-12T10:08:15;25.90;1.00
6421;DHT22;3243;50.958;7.012;2023-09-12T10:10:44;26.00;1.00
6421;DHT22;3243;50.958;7.012;2023-09-12T10:13:11;26.00;1.00
6421;DHT22;3243;50.958;7.012;2023-09-12T10:15:39;26.10;1.00
6421;DHT22;3243;50.958;7.012;2023-09-12T10:18:09;26.10;1.00
6421;DHT22;3243;50.958;7.012;2023-09-12T10:21:07;26.10;1.00
6421;DHT22;3243;50.958;7.012;2023-09-12T10:26:04;25.40;1.00
6421;DHT22;3243;50.958;7.012;2023-09-12T10:28:31;25.20;1.00
6421;DHT22;3243;50.958;7.012;2023-09-12T10:31:00;25.20;1.00
6421;DHT22;3243;50.958;7.012;2023-09-12T10:33:28;25.20;1.00
6421;DHT22;3243;50.958;7.012;2023-09-12T10:35:59;25.10;1.00
6421;DHT22;3243;50.958;7.012;2023-09-12T10:38:28;25.00;1.00
6421;DHT22;3243;50.958;7.012;2023-09-12T10:40:56;25.00;1.00
6421;DHT22;3243;50.958;7.012;2023-09-12T10:43:25;25.10;1.00
6421;DHT22;3243;50.958;7.012;2023-09-12T10:45:52;25.30;1.00
6421;DHT22;3243;50.958;7.012;2023-09-12T10:48:20;25.40;1.00
6421;DHT22;3243;50.958;7.012;2023-09-12T10:50:47;25.50;1.00
6421;DHT22;3243;50.958;7.012;2023-09-12T10:53:15;25.70;1.00
6421;DHT22;3243;50.958;7.012;2023-09-12T10:55:42;25.80;1.00
6421;DHT22;3243;50.958;7.012;2023-09-12T10:58:24;26.00;1.00
6421;DHT22;3243;50.958;7.012;2023-09-12T11:01:22;26.00;1.00
6421;DHT22;3243;50.958;7.012;2023-09-12T11:03:51;26.00;1.00
6421;DHT22;3243;50.958;7.012;2023-09-12T11:06:31;25.90;1.00
6421;DHT22;3243;50.958;7.012;2023-09-12T11:09:30;26.10;1.00
6421;DHT22;3243;50.958;7.012;2023-09-12T11:12:04;26.10;1.00
6421;DHT22;3243;50.958;7.012;2023-09-12T11:14:31;26.00;1.00
6421;DHT22;3243;50.958;7.012;2023-09-12T11:19:45;26.00;1.00
6421;DHT22;3243;50.958;7.012;2023-09-12T11:24:48;25.70;1.00
6421;DHT22;3243;50.958;7.012;2023-09-12T11:27:15;25.80;1.00
6421;DHT22;3243;50.958;7.012;2023-09-12T11:29:44;25.90;1.00
6421;DHT22;3243;50.958;7.012;2023-09-12T11:32:31;25.90;1.00
6421;DHT22;3243;50.958;7.012;2023-09-12T11:34:59;26.00;1.00
6421;DHT22;3243;50.958;7.012;2023-09-12T11:37:27;26.10;1.00
6421;DHT22;3243;50.958;7.012;2023-09-12T11:39:55;26.00;1.00
6421;DHT22;3243;50.958;7.012;2023-09-12T11:42:24;26.10;1.00
6421;DHT22;3243;50.958;7.012;2023-09-12T11:44:52;25.80;1.00
6421;DHT22;3243;50.958;7.012;2023-09-12T11:47:19;25.90;1.00
6421;DHT22;3243;50.958;7.012;2023-09-12T11:49:47;26.00;1.00
6421;DHT22;3243;50.958;7.012;2023-09-12T11:52:14;26.20;1.00
6421;DHT22;3243;50.958;7.012;2023-09-12T11:54:44;26.10;1.00
6421;DHT22;3243;50.958;7.012;2023-09-12T11:57:15;26.00;1.00
6421;DHT22;3243;50.958;7.012;2023-09-12T11:59:46;26.20;1.00
6421;DHT22;3243;50.958;7.012;2023-09-12T12:02:15;26.30;1.00
6421;DHT22;3243;50.958;7.012;2023-09-12T12:04:42;26.20;1.00
6421;DHT22;3243;50.958;7.012;2023-09-12T12:07:10;26.20;1.00
6421;DHT22;3243;50.958;7.012;2023-09-12T12:09:37;26.20;1.00
6421;DHT22;3243;50.958;7.012;2023-09-12T12:12:14;26.20;1.00
6421;DHT22;3243;50.958;7.012;2023-09-12T12:14:41;26.30;1.00
6421;DHT22;3243;50.958;7.012;2023-09-12T12:17:10;26.40;1.00
6421;DHT22;3243;50.958;7.012;2023-09-12T12:19:38;26.50;1.00
6421;DHT22;3243;50.958;7.012;2023-09-12T12:22:06;26.40;1.00
6421;DHT22;3243;50.958;7.012;2023-09-12T12:24:45;26.30;1.00
6421;DHT22;3243;50.958;7.012;2023-09-12T12:27:14;27.60;1.00
6421;DHT22;3243;50.958;7.012;2023-09-12T12:29:41;26.30;1.00
6421;DHT22;3243;50.958;7.012;2023-09-12T12:32:10;26.30;1.00
6421;DHT22;3243;50.958;7.012;2023-09-12T12:34:37;26.50;1.00
6421;DHT22;3243;50.958;7.012;2023-09-12T12:37:29;26.50;1.00
6421;DHT22;3243;50.958;7.012;2023-09-12T12:40:00;26.50;1.00
6421;DHT22;3243;50.958;7.012;2023-09-12T12:42:33;26.60;1.00
6421;DHT22;3243;50.958;7.012;2023-09-12T12:45:18;26.60;1.00
6421;DHT22;3243;50.958;7.012;2023-09-12T12:47:46;26.60;1.00
6421;DHT22;3243;50.958;7.012;2023-09-12T12:50:14;26.70;1.00
6421;DHT22;3243;50.958;7.012;2023-09-12T12:52:42;26.60;1.00
6421;DHT22;3243;50.958;7.012;2023-09-12T12:55:13;26.90;1.00
6421;DHT22;3243;50.958;7.012;2023-09-12T12:57:41;27.10;1.00
6421;DHT22;3243;50.958;7.012;2023-09-12T13:00:14;27.30;1.00
6421;DHT22;3243;50.958;7.012;2023-09-12T13:02:43;27.00;1.00
6421;DHT22;3243;50.958;7.012;2023-09-12T13:05:28;26.70;1.00
6421;DHT22;3243;50.958;7.012;2023-09-12T13:10:23;26.70;1.00
6421;DHT22;3243;50.958;7.012;2023-09-12T13:15:17;26.60;1.00
6421;DHT22;3243;50.958;7.012;2023-09-12T13:17:45;26.50;1.00
6421;DHT22;3243;50.958;7.012;2023-09-12T13:20:12;26.60;1.00
6421;DHT22;3243;50.958;7.012;2023-09-12T13:22:39;26.60;1.00
6421;DHT22;3243;50.958;7.012;2023-09-12T13:25:06;26.40;1.00
6421;DHT22;3243;50.958;7.012;2023-09-12T13:27:34;26.40;1.00
6421;DHT22;3243;50.958;7.012;2023-09-12T13:30:01;26.40;1.00
6421;DHT22;3243;50.958;7.012;2023-09-12T13:32:28;26.20;1.00
6421;DHT22;3243;50.958;7.012;2023-09-12T13:34:55;26.20;1.00
6421;DHT22;3243;50.958;7.012;2023-09-12T13:42:16;26.50;1.00
6421;DHT22;3243;50.958;7.012;2023-09-12T13:44:48;26.50;1.00
6421;DHT22;3243;50.958;7.012;2023-09-12T13:49:49;26.70;1.00
6421;DHT22;3243;50.958;7.012;2023-09-12T13:52:20;26.70;1.00
6421;DHT22;3243;50.958;7.012;2023-09-12T13:54:47;26.60;1.00
6421;DHT22;3243;50.958;7.012;2023-09-12T13:57:16;26.50;1.00
6421;DHT22;3243;50.958;7.012;2023-09-12T13:59:43;26.40;1.00
6421;DHT22;3243;50.958;7.012;2023-09-12T14:02:12;26.30;1.00
6421;DHT22;3243;50.958;7.012;2023-09-12T14:04:40;26.10;1.00
6421;DHT22;3243;50.958;7.012;2023-09-12T14:07:08;26.10;1.00
6421;DHT22;3243;50.958;7.012;2023-09-12T14:09:36;26.10;1.00
6421;DHT22;3243;50.958;7.012;2023-09-12T14:12:03;26.20;1.00
6421;DHT22;3243;50.958;7.012;2023-09-12T14:14:33;26.30;1.00
6421;DHT22;3243;50.958;7.012;2023-09-12T14:17:00;26.30;1.00
6421;DHT22;3243;50.958;7.012;2023-09-12T14:21:56;26.40;1.00
6421;DHT22;3243;50.958;7.012;2023-09-12T14:26:52;26.20;1.00
6421;DHT22;3243;50.958;7.012;2023-09-12T14:29:21;26.30;1.00
6421;DHT22;3243;50.958;7.012;2023-09-12T14:31:48;26.30;1.00
6421;DHT22;3243;50.958;7.012;2023-09-12T14:34:25;26.40;1.00
6421;DHT22;3243;50.958;7.012;2023-09-12T14:36:54;26.50;1.00
6421;DHT22;3243;50.958;7.012;2023-09-12T14:39:22;26.60;1.00
6421;DHT22;3243;50.958;7.012;2023-09-12T14:41:49;26.60;1.00
6421;DHT22;3243;50.958;7.012;2023-09-12T14:44:18;26.40;1.00
6421;DHT22;3243;50.958;7.012;2023-09-12T14:49:13;26.40;1.00
6421;DHT22;3243;50.958;7.012;2023-09-12T14:51:40;26.40;1.00
6421;DHT22;3243;50.958;7.012;2023-09-12T14:54:07;26.60;1.00
6421;DHT22;3243;50.958;7.012;2023-09-12T14:56:34;26.60;1.00
6421;DHT22;3243;50.958;7.012;2023-09-12T14:59:02;26.50;1.00
6421;DHT22;3243;50.958;7.012;2023-09-12T15:01:29;26.60;1.00
6421;DHT22;3243;50.958;7.012;2023-09-12T15:03:56;26.60;1.00
6421;DHT22;3243;50.958;7.012;2023-09-12T15:06:23;26.50;1.00
6421;DHT22;3243;50.958;7.012;2023-09-12T15:08:51;26.70;1.00
6421;DHT22;3243;50.958;7.012;2023-09-12T15:11:18;26.80;1.00
6421;DHT22;3243;50.958;7.012;2023-09-12T15:13:45;26.70;1.00
6421;DHT22;3243;50.958;7.012;2023-09-12T15:18:41;26.60;1.00
6421;DHT22;3243;50.958;7.012;2023-09-12T15:21:08;26.70;1.00
6421;DHT22;3243;50.958;7.012;2023-09-12T15:23:35;26.70;1.00
6421;DHT22;3243;50.958;7.012;2023-09-12T15:26:02;26.70;1.00
6421;DHT22;3243;50.958;7.012;2023-09-12T15:28:29;26.70;1.00
6421;DHT22;3243;50.958;7.012;2023-09-12T15:30:55;26.60;1.00
6421;DHT22;3243;50.958;7.012;2023-09-12T15:33:23;26.30;1.00
6421;DHT22;3243;50.958;7.012;2023-09-12T15:35:50;26.30;1.00
6421;DHT22;3243;50.958;7.012;2023-09-12T15:38:17;26.00;1.00
6421;DHT22;3243;50.958;7.012;2023-09-12T15:40:43;25.90;1.00
6421;DHT22;3243;50.958;7.012;2023-09-12T15:45:50;25.80;1.00
6421;DHT22;3243;50.958;7.012;2023-09-12T15:48:18;25.80;1.00
6421;DHT22;3243;50.958;7.012;2023-09-12T15:50:45;25.70;1.00
6421;DHT22;3243;50.958;7.012;2023-09-12T15:55:40;25.70;1.00
6421;DHT22;3243;50.958;7.012;2023-09-12T15:58:07;25.60;1.00
6421;DHT22;3243;50.958;7.012;2023-09-12T16:00:33;25.60;1.00
6421;DHT22;3243;50.958;7.012;2023-09-12T16:03:00;25.60;1.00
6421;DHT22;3243;50.958;7.012;2023-09-12T16:05:27;25.50;1.00
6421;DHT22;3243;50.958;7.012;2023-09-12T16:07:54;25.60;1.00
6421;DHT22;3243;50.958;7.012;2023-09-12T16:12:48;25.50;1.00
6421;DHT22;3243;50.958;7.012;2023-09-12T16:17:42;25.40;1.00
6421;DHT22;3243;50.958;7.012;2023-09-12T16:20:11;25.50;1.00
6421;DHT22;3243;50.958;7.012;2023-09-12T16:25:08;25.50;1.00
6421;DHT22;3243;50.958;7.012;2023-09-12T16:30:05;25.40;1.00
6421;DHT22;3243;50.958;7.012;2023-09-12T16:32:37;25.30;1.00
6421;DHT22;3243;50.958;7.012;2023-09-12T16:35:05;25.20;1.00
6421;DHT22;3243;50.958;7.012;2023-09-12T16:37:32;25.10;1.00
6421;DHT22;3243;50.958;7.012;2023-09-12T16:39:59;25.10;1.00
6421;DHT22;3243;50.958;7.012;2023-09-12T16:42:27;25.10;1.00
6421;DHT22;3243;50.958;7.012;2023-09-12T16:44:58;25.00;1.00
6421;DHT22;3243;50.958;7.012;2023-09-12T16:47:27;24.90;1.00
6421;DHT22;3243;50.958;7.012;2023-09-12T16:49:55;24.90;1.00
6421;DHT22;3243;50.958;7.012;2023-09-12T16:52:22;24.70;1.00
6421;DHT22;3243;50.958;7.012;2023-09-12T16:54:49;24.70;1.00
6421;DHT22;3243;50.958;7.012;2023-09-12T16:57:16;24.60;1.00
6421;DHT22;3243;50.958;7.012;2023-09-12T16:59:44;24.50;1.00
6421;DHT22;3243;50.958;7.012;2023-09-12T17:02:11;24.60;1.00
6421;DHT22;3243;50.958;7.012;2023-09-12T17:04:39;24.60;1.00
6421;DHT22;3243;50.958;7.012;2023-09-12T17:07:13;24.60;1.00
6421;DHT22;3243;50.958;7.012;2023-09-12T17:09:40;24.60;1.00
6421;DHT22;3243;50.958;7.012;2023-09-12T17:12:08;24.50;1.00
6421;DHT22;3243;50.958;7.012;2023-09-12T17:14:34;24.50;1.00
6421;DHT22;3243;50.958;7.012;2023-09-12T17:19:29;24.30;1.00
6421;DHT22;3243;50.958;7.012;2023-09-12T17:24:23;24.20;1.00
6421;DHT22;3243;50.958;7.012;2023-09-12T17:26:49;24.00;1.00
6421;DHT22;3243;50.958;7.012;2023-09-12T17:34:13;24.10;1.00
6421;DHT22;3243;50.958;7.012;2023-09-12T17:41:38;24.00;1.00
6421;DHT22;3243;50.958;7.012;2023-09-12T17:44:05;24.00;1.00
6421;DHT22;3243;50.958;7.012;2023-09-12T17:48:59;24.00;1.00
6421;DHT22;3243;50.958;7.012;2023-09-12T17:51:26;23.90;1.00
6421;DHT22;3243;50.958;7.012;2023-09-12T17:53:53;23.80;9.30
6421;DHT22;3243;50.958;7.012;2023-09-12T17:56:20;23.60;52.10
6421;DHT22;3243;50.958;7.012;2023-09-12T17:58:47;23.40;99.90
6421;DHT22;3243;50.958;7.012;2023-09-12T18:01:14;23.30;99.90
6421;DHT22;3243;50.958;7.012;2023-09-12T18:08:36;22.70;99.90
6421;DHT22;3243;50.958;7.012;2023-09-12T18:11:03;22.60;99.90
6421;DHT22;3243;50.958;7.012;2023-09-12T18:13:30;22.50;99.90
6421;DHT22;3243;50.958;7.012;2023-09-12T18:18:24;22.20;1.00
6421;DHT22;3243;50.958;7.012;2023-09-12T18:28:17;21.70;99.90
6421;DHT22;3243;50.958;7.012;2023-09-12T18:38:25;21.60;1.00
6421;DHT22;3243;50.958;7.012;2023-09-12T18:43:19;21.50;1.00
6421;DHT22;3243;50.958;7.012;2023-09-12T18:48:13;21.50;1.00
6421;DHT22;3243;50.958;7.012;2023-09-12T18:53:10;21.50;99.90
6421;DHT22;3243;50.958;7.012;2023-09-12T18:55:41;21.40;99.90
6421;DHT22;3243;50.958;7.012;2023-09-12T18:58:12;21.30;99.90
6421;DHT22;3243;50.958;7.012;2023-09-12T19:00:43;21.40;99.90
6421;DHT22;3243;50.958;7.012;2023-09-12T19:03:11;21.30;99.90
6421;DHT22;3243;50.958;7.012;2023-09-12T19:05:41;21.30;99.90
6421;DHT22;3243;50.958;7.012;2023-09-12T19:08:08;21.30;99.90
6421;DHT22;3243;50.958;7.012;2023-09-12T19:10:37;21.20;99.90
6421;DHT22;3243;50.958;7.012;2023-09-12T19:13:04;21.20;99.90
6421;DHT22;3243;50.958;7.012;2023-09-12T19:15:32;21.30;99.90
6421;DHT22;3243;50.958;7.012;2023-09-12T19:17:59;21.20;99.90
6421;DHT22;3243;50.958;7.012;2023-09-12T19:22:55;21.20;99.90
6421;DHT22;3243;50.958;7.012;2023-09-12T19:25:22;21.10;99.90
6421;DHT22;3243;50.958;7.012;2023-09-12T19:30:16;21.00;99.90
6421;DHT22;3243;50.958;7.012;2023-09-12T19:32:42;20.90;99.90
6421;DHT22;3243;50.958;7.012;2023-09-12T19:40:05;20.60;99.90